sensor_id;sensor_type;location;lat;lon;timestamp;P1;durP1;ratioP1;P2;durP2;ratioP2
9100;SDS011;4586;52.518;13.486;2024-03-02T00:00:33;31.57;;;21.93;;
9100;SDS011;4586;52.518;13.486;2024-03-02T00:04:35;33.57;;;23.13;;
9100;SDS011;4586;52.518;13.486;2024-03-02T00:08:37;39.20;;;23.33;;
9100;SDS011;4586;52.518;13.486;2024-03-02T00:12:40;36.60;;;22.03;;
9100;SDS011;4586;52.518;13.486;2024-03-02T00:16:42;35.97;;;22.87;;
9100;SDS011;4586;52.518;13.486;2024-03-02T00:20:44;40.67;;;21.80;;
9100;SDS011;4586;52.518;13.486;2024-03-02T00:24:46;34.90;;;23.10;;
9100;SDS011;4586;52.518;13.486;2024-03-02T00:28:49;35.80;;;22.10;;
9100;SDS011;4586;52.518;13.486;2024-03-02T00:32:51;39.07;;;22.30;;
9100;SDS011;4586;52.518;13.486;2024-03-02T00:36:53;36.83;;;23.03;;
9100;SDS011;4586;52.518;13.486;2024-03-02T00:40:59;38.60;;;23.10;;
9100;SDS011;4586;52.518;13.486;2024-03-02T00:45:05;38.23;;;23.60;;
9100;SDS011;4586;52.518;13.486;2024-03-02T00:49:17;40.80;;;23.57;;
9100;SDS011;4586;52.518;13.486;2024-03-02T00:53:21;37.50;;;24.03;;
9100;SDS011;4586;52.518;13.486;2024-03-02T00:57:25;36.00;;;22.67;;
9100;SDS011;4586;52.518;13.486;2024-03-02T01:01:27;35.67;;;24.17;;
9100;SDS011;4586;52.518;13.486;2024-03-02T01:05:30;35.07;;;22.10;;
9100;SDS011;4586;52.518;13.486;2024-03-02T01:09:32;34.03;;;22.70;;
9100;SDS011;4586;52.518;13.486;2024-03-02T01:13:34;36.37;;;22.97;;
9100;SDS011;4586;52.518;13.486;2024-03-02T01:17:36;37.53;;;22.70;;
9100;SDS011;4586;52.518;13.486;2024-03-02T01:21:39;32.80;;;22.10;;
9100;SDS011;4586;52.518;13.486;2024-03-02T01:25:41;36.87;;;22.60;;
9100;SDS011;4586;52.518;13.486;2024-03-02T01:29:43;41.43;;;22.83;;
9100;SDS011;4586;52.518;13.486;2024-03-02T01:33:45;39.17;;;25.13;;
9100;SDS011;4586;52.518;13.486;2024-03-02T01:37:47;40.63;;;24.10;;
9100;SDS011;4586;52.518;13.486;2024-03-02T01:41:50;39.33;;;23.83;;
9100;SDS011;4586;52.518;13.486;2024-03-02T01:45:52;40.80;;;24.13;;
9100;SDS011;4586;52.518;13.486;2024-03-02T01:49:54;37.80;;;24.30;;
9100;SDS011;4586;52.518;13.486;2024-03-02T01:53:57;40.20;;;24.50;;
9100;SDS011;4586;52.518;13.486;2024-03-02T01:57:59;36.90;;;24.07;;
9100;SDS011;4586;52.518;13.486;2024-03-02T02:02:01;38.40;;;24.00;;
9100;SDS011;4586;52.518;13.486;2024-03-02T02:06:03;35.43;;;23.43;;
9100;SDS011;4586;52.518;13.486;2024-03-02T02:10:06;39.73;;;23.67;;
9100;SDS011;4586;52.518;13.486;2024-03-02T02:14:08;38.20;;;23.50;;
9100;SDS011;4586;52.518;13.486;2024-03-02T02:18:10;37.03;;;23.90;;
9100;SDS011;4586;52.518;13.486;2024-03-02T02:22:12;35.03;;;23.23;;
9100;SDS011;4586;52.518;13.486;2024-03-02T02:26:14;37.27;;;23.43;;
9100;SDS011;4586;52.518;13.486;2024-03-02T02:30:20;38.73;;;22.90;;
9100;SDS011;4586;52.518;13.486;2024-03-02T02:34:22;37.30;;;23.90;;
9100;SDS011;4586;52.518;13.486;2024-03-02T02:38:24;36.13;;;23.90;;
9100;SDS011;4586;52.518;13.486;2024-03-02T02:42:27;37.53;;;23.43;;
9100;SDS011;4586;52.518;13.486;2024-03-02T02:46:29;34.90;;;22.73;;
9100;SDS011;4586;52.518;13.486;2024-03-02T02:50:31;39.67;;;23.30;;
9100;SDS011;4586;52.518;13.486;2024-03-02T02:54:33;37.27;;;22.50;;
9100;SDS011;4586;52.518;13.486;2024-03-02T02:58:35;35.37;;;22.43;;
9100;SDS011;4586;52.518;13.486;2024-03-02T03:02:38;34.47;;;23.93;;
9100;SDS011;4586;52.518;13.486;2024-03-02T03:06:40;36.10;;;23.40;;
9100;SDS011;4586;52.518;13.486;2024-03-02T03:10:42;36.50;;;24.30;;
9100;SDS011;4586;52.518;13.486;2024-03-02T03:14:44;39.53;;;23.57;;
9100;SDS011;4586;52.518;13.486;2024-03-02T03:18:47;37.93;;;23.50;;
9100;SDS011;4586;52.518;13.486;2024-03-02T03:22:49;37.67;;;23.17;;
9100;SDS011;4586;52.518;13.486;2024-03-02T03:26:51;36.03;;;22.37;;
9100;SDS011;4586;52.518;13.486;2024-03-02T03:30:53;34.03;;;22.00;;
9100;SDS011;4586;52.518;13.486;2024-03-02T03:34:55;37.80;;;22.50;;
9100;SDS011;4586;52.518;13.486;2024-03-02T03:38:57;33.87;;;23.00;;
9100;SDS011;4586;52.518;13.486;2024-03-02T03:43:00;33.53;;;21.70;;
9100;SDS011;4586;52.518;13.486;2024-03-02T03:47:02;33.90;;;21.90;;
9100;SDS011;4586;52.518;13.486;2024-03-02T03:51:04;36.73;;;21.63;;
9100;SDS011;4586;52.518;13.486;2024-03-02T03:55:06;32.07;;;20.83;;
9100;SDS011;4586;52.518;13.486;2024-03-02T03:59:09;34.00;;;21.47;;
9100;SDS011;4586;52.518;13.486;2024-03-02T04:03:11;34.27;;;21.30;;
9100;SDS011;4586;52.518;13.486;2024-03-02T04:07:13;35.60;;;20.70;;
9100;SDS011;4586;52.518;13.486;2024-03-02T04:11:15;28.43;;;19.30;;
9100;SDS011;4586;52.518;13.486;2024-03-02T04:15:17;33.87;;;21.23;;
9100;SDS011;4586;52.518;13.486;2024-03-02T04:19:20;28.63;;;21.03;;
9100;SDS011;4586;52.518;13.486;2024-03-02T04:23:22;32.37;;;21.17;;
9100;SDS011;4586;52.518;13.486;2024-03-02T04:27:24;29.67;;;19.97;;
9100;SDS011;4586;52.518;13.486;2024-03-02T04:31:26;33.13;;;20.07;;
9100;SDS011;4586;52.518;13.486;2024-03-02T04:35:28;30.93;;;20.27;;
9100;SDS011;4586;52.518;13.486;2024-03-02T04:39:30;31.57;;;19.53;;
9100;SDS011;4586;52.518;13.486;2024-03-02T04:43:33;31.93;;;20.17;;
9100;SDS011;4586;52.518;13.486;2024-03-02T04:47:35;31.13;;;19.87;;
9100;SDS011;4586;52.518;13.486;2024-03-02T04:51:37;29.97;;;19.93;;
9100;SDS011;4586;52.518;13.486;2024-03-02T04:55:40;31.80;;;19.73;;
9100;SDS011;4586;52.518;13.486;2024-03-02T04:59:42;29.87;;;19.37;;
9100;SDS011;4586;52.518;13.486;2024-03-02T05:03:44;29.47;;;19.27;;
9100;SDS011;4586;52.518;13.486;2024-03-02T05:07:46;29.80;;;19.83;;
9100;SDS011;4586;52.518;13.486;2024-03-02T05:11:48;29.90;;;19.27;;
9100;SDS011;4586;52.518;13.486;2024-03-02T05:15:51;31.67;;;19.40;;
9100;SDS011;4586;52.518;13.486;2024-03-02T05:19:53;27.67;;;18.50;;
9100;SDS011;4586;52.518;13.486;2024-03-02T05:23:55;26.60;;;18.93;;
9100;SDS011;4586;52.518;13.486;2024-03-02T05:27:57;30.20;;;19.40;;
9100;SDS011;4586;52.518;13.486;2024-03-02T05:31:59;24.73;;;17.73;;
9100;SDS011;4586;52.518;13.486;2024-03-02T05:36:01;29.07;;;18.93;;
9100;SDS011;4586;52.518;13.486;2024-03-02T05:40:04;26.13;;;17.93;;
9100;SDS011;4586;52.518;13.486;2024-03-02T05:44:06;32.17;;;19.83;;
9100;SDS011;4586;52.518;13.486;2024-03-02T05:48:08;29.83;;;18.30;;
9100;SDS011;4586;52.518;13.486;2024-03-02T05:52:11;27.13;;;17.77;;
9100;SDS011;4586;52.518;13.486;2024-03-02T05:56:13;29.30;;;18.50;;
9100;SDS011;4586;52.518;13.486;2024-03-02T06:00:15;29.03;;;19.10;;
9100;SDS011;4586;52.518;13.486;2024-03-02T06:04:18;28.27;;;17.90;;
9100;SDS011;4586;52.518;13.486;2024-03-02T06:08:20;27.77;;;18.67;;
9100;SDS011;4586;52.518;13.486;2024-03-02T06:12:22;29.53;;;20.07;;
9100;SDS011;4586;52.518;13.486;2024-03-02T06:16:24;30.20;;;19.23;;
9100;SDS011;4586;52.518;13.486;2024-03-02T06:20:26;34.40;;;20.80;;
9100;SDS011;4586;52.518;13.486;2024-03-02T06:24:28;31.37;;;19.63;;
9100;SDS011;4586;52.518;13.486;2024-03-02T06:28:31;34.90;;;20.93;;
9100;SDS011;4586;52.518;13.486;2024-03-02T06:32:33;37.47;;;21.70;;
9100;SDS011;4586;52.518;13.486;2024-03-02T06:36:35;36.83;;;21.33;;
9100;SDS011;4586;52.518;13.486;2024-03-02T06:40:37;33.37;;;21.50;;
9100;SDS011;4586;52.518;13.486;2024-03-02T06:44:40;28.23;;;19.53;;
9100;SDS011;4586;52.518;13.486;2024-03-02T06:48:42;35.27;;;21.33;;
9100;SDS011;4586;52.518;13.486;2024-03-02T06:52:44;35.20;;;21.70;;
9100;SDS011;4586;52.518;13.486;2024-03-02T06:56:46;34.70;;;21.10;;
9100;SDS011;4586;52.518;13.486;2024-03-02T07:00:48;31.23;;;20.33;;
9100;SDS011;4586;52.518;13.486;2024-03-02T07:04:50;34.03;;;21.57;;
9100;SDS011;4586;52.518;13.486;2024-03-02T07:08:53;36.03;;;21.73;;
9100;SDS011;4586;52.518;13.486;2024-03-02T07:12:55;33.73;;;20.37;;
9100;SDS011;4586;52.518;13.486;2024-03-02T07:16:57;33.70;;;21.60;;
9100;SDS011;4586;52.518;13.486;2024-03-02T07:20:59;39.27;;;22.80;;
9100;SDS011;4586;52.518;13.486;2024-03-02T07:25:01;38.63;;;21.63;;
9100;SDS011;4586;52.518;13.486;2024-03-02T07:29:04;32.90;;;21.53;;
9100;SDS011;4586;52.518;13.486;2024-03-02T07:33:06;37.53;;;23.00;;
9100;SDS011;4586;52.518;13.486;2024-03-02T07:37:08;40.73;;;23.00;;
9100;SDS011;4586;52.518;13.486;2024-03-02T07:41:10;35.13;;;21.70;;
9100;SDS011;4586;52.518;13.486;2024-03-02T07:45:13;35.87;;;22.27;;
9100;SDS011;4586;52.518;13.486;2024-03-02T07:49:15;36.33;;;21.87;;
9100;SDS011;4586;52.518;13.486;2024-03-02T07:53:17;34.73;;;21.80;;
9100;SDS011;4586;52.518;13.486;2024-03-02T07:57:20;35.60;;;23.00;;
9100;SDS011;4586;52.518;13.486;2024-03-02T08:01:22;33.23;;;22.03;;
9100;SDS011;4586;52.518;13.486;2024-03-02T08:05:24;36.53;;;21.63;;
9100;SDS011;4586;52.518;13.486;2024-03-02T08:09:26;35.50;;;22.83;;
9100;SDS011;4586;52.518;13.486;2024-03-02T08:13:28;32.73;;;22.37;;
9100;SDS011;4586;52.518;13.486;2024-03-02T08:17:31;36.80;;;22.87;;
9100;SDS011;4586;52.518;13.486;2024-03-02T08:21:38;40.90;;;26.33;;
9100;SDS011;4586;52.518;13.486;2024-03-02T08:25:40;36.80;;;20.90;;
9100;SDS011;4586;52.518;13.486;2024-03-02T08:29:42;32.47;;;21.30;;
9100;SDS011;4586;52.518;13.486;2024-03-02T08:33:45;36.60;;;22.73;;
9100;SDS011;4586;52.518;13.486;2024-03-02T08:37:47;36.47;;;21.63;;
9100;SDS011;4586;52.518;13.486;2024-03-02T08:41:49;34.73;;;20.20;;
9100;SDS011;4586;52.518;13.486;2024-03-02T08:45:51;30.50;;;18.90;;
9100;SDS011;4586;52.518;13.486;2024-03-02T08:49:54;30.50;;;19.30;;
9100;SDS011;4586;52.518;13.486;2024-03-02T08:54:00;27.40;;;18.00;;
9100;SDS011;4586;52.518;13.486;2024-03-02T08:58:03;30.87;;;20.90;;
9100;SDS011;4586;52.518;13.486;2024-03-02T09:02:06;33.57;;;21.43;;
9100;SDS011;4586;52.518;13.486;2024-03-02T09:06:08;36.40;;;22.80;;
9100;SDS011;4586;52.518;13.486;2024-03-02T09:10:10;18.33;;;10.80;;
9100;SDS011;4586;52.518;13.486;2024-03-02T09:14:13;32.77;;;20.43;;
9100;SDS011;4586;52.518;13.486;2024-03-02T09:18:15;36.23;;;22.40;;
9100;SDS011;4586;52.518;13.486;2024-03-02T09:22:17;64.43;;;32.07;;
9100;SDS011;4586;52.518;13.486;2024-03-02T09:26:19;27.63;;;19.37;;
9100;SDS011;4586;52.518;13.486;2024-03-02T09:30:22;29.07;;;17.77;;
9100;SDS011;4586;52.518;13.486;2024-03-02T09:34:24;27.30;;;20.00;;
9100;SDS011;4586;52.518;13.486;2024-03-02T09:38:26;31.83;;;21.93;;
9100;SDS011;4586;52.518;13.486;2024-03-02T09:42:28;31.67;;;21.00;;
9100;SDS011;4586;52.518;13.486;2024-03-02T09:46:31;36.10;;;22.17;;
9100;SDS011;4586;52.518;13.486;2024-03-02T09:50:33;29.23;;;18.27;;
9100;SDS011;4586;52.518;13.486;2024-03-02T09:54:36;34.37;;;21.53;;
9100;SDS011;4586;52.518;13.486;2024-03-02T09:58:38;31.93;;;19.23;;
9100;SDS011;4586;52.518;13.486;2024-03-02T10:02:41;30.57;;;20.30;;
9100;SDS011;4586;52.518;13.486;2024-03-02T10:06:43;30.77;;;19.13;;
9100;SDS011;4586;52.518;13.486;2024-03-02T10:10:45;40.73;;;24.37;;
9100;SDS011;4586;52.518;13.486;2024-03-02T10:14:47;26.10;;;17.83;;
9100;SDS011;4586;52.518;13.486;2024-03-02T10:18:50;31.07;;;18.80;;
9100;SDS011;4586;52.518;13.486;2024-03-02T10:22:52;27.70;;;18.10;;
9100;SDS011;4586;52.518;13.486;2024-03-02T10:26:54;31.63;;;18.00;;
9100;SDS011;4586;52.518;13.486;2024-03-02T10:30:56;24.87;;;16.13;;
9100;SDS011;4586;52.518;13.486;2024-03-02T10:35:00;25.07;;;16.73;;
9100;SDS011;4586;52.518;13.486;2024-03-02T10:39:05;26.40;;;16.63;;
9100;SDS011;4586;52.518;13.486;2024-03-02T10:43:07;22.63;;;15.67;;
9100;SDS011;4586;52.518;13.486;2024-03-02T10:47:09;24.40;;;14.93;;
9100;SDS011;4586;52.518;13.486;2024-03-02T10:51:14;23.23;;;14.27;;
9100;SDS011;4586;52.518;13.486;2024-03-02T10:55:16;25.87;;;14.27;;
9100;SDS011;4586;52.518;13.486;2024-03-02T10:59:34;21.93;;;13.23;;
9100;SDS011;4586;52.518;13.486;2024-03-02T11:03:37;18.40;;;13.20;;
9100;SDS011;4586;52.518;13.486;2024-03-02T11:07:39;22.23;;;13.93;;
9100;SDS011;4586;52.518;13.486;2024-03-02T11:11:42;24.43;;;15.33;;
9100;SDS011;4586;52.518;13.486;2024-03-02T11:15:45;19.07;;;11.53;;
9100;SDS011;4586;52.518;13.486;2024-03-02T11:19:47;19.17;;;12.57;;
9100;SDS011;4586;52.518;13.486;2024-03-02T11:23:49;22.63;;;13.80;;
9100;SDS011;4586;52.518;13.486;2024-03-02T11:31:57;22.53;;;14.40;;
9100;SDS011;4586;52.518;13.486;2024-03-02T11:36:00;27.07;;;14.70;;
9100;SDS011;4586;52.518;13.486;2024-03-02T11:40:02;22.43;;;14.23;;
9100;SDS011;4586;52.518;13.486;2024-03-02T11:44:05;20.27;;;12.83;;
9100;SDS011;4586;52.518;13.486;2024-03-02T11:48:08;21.03;;;11.93;;
9100;SDS011;4586;52.518;13.486;2024-03-02T11:52:10;22.37;;;12.73;;
9100;SDS011;4586;52.518;13.486;2024-03-02T11:56:13;19.63;;;11.80;;
9100;SDS011;4586;52.518;13.486;2024-03-02T12:00:19;20.77;;;12.23;;
9100;SDS011;4586;52.518;13.486;2024-03-02T12:04:22;20.30;;;12.53;;
9100;SDS011;4586;52.518;13.486;2024-03-02T12:08:24;20.43;;;12.67;;
9100;SDS011;4586;52.518;13.486;2024-03-02T12:12:27;18.30;;;12.63;;
9100;SDS011;4586;52.518;13.486;2024-03-02T12:16:29;17.87;;;10.80;;
9100;SDS011;4586;52.518;13.486;2024-03-02T12:20:32;16.80;;;11.67;;
9100;SDS011;4586;52.518;13.486;2024-03-02T12:24:34;20.53;;;13.30;;
9100;SDS011;4586;52.518;13.486;2024-03-02T12:28:36;18.83;;;12.67;;
9100;SDS011;4586;52.518;13.486;2024-03-02T12:32:42;18.27;;;11.57;;
9100;SDS011;4586;52.518;13.486;2024-03-02T12:36:45;18.17;;;11.63;;
9100;SDS011;4586;52.518;13.486;2024-03-02T12:40:48;19.37;;;12.00;;
9100;SDS011;4586;52.518;13.486;2024-03-02T12:44:53;17.57;;;11.30;;
9100;SDS011;4586;52.518;13.486;2024-03-02T12:48:55;19.17;;;10.70;;
9100;SDS011;4586;52.518;13.486;2024-03-02T12:52:57;16.03;;;11.03;;
9100;SDS011;4586;52.518;13.486;2024-03-02T12:57:00;17.97;;;10.40;;
9100;SDS011;4586;52.518;13.486;2024-03-02T13:01:08;16.73;;;10.93;;
9100;SDS011;4586;52.518;13.486;2024-03-02T13:05:11;29.13;;;17.87;;
9100;SDS011;4586;52.518;13.486;2024-03-02T13:09:13;13.23;;;9.57;;
9100;SDS011;4586;52.518;13.486;2024-03-02T13:13:17;17.57;;;9.97;;
9100;SDS011;4586;52.518;13.486;2024-03-02T13:17:19;12.37;;;8.13;;
9100;SDS011;4586;52.518;13.486;2024-03-02T13:21:22;11.90;;;7.60;;
9100;SDS011;4586;52.518;13.486;2024-03-02T13:25:24;11.27;;;7.40;;
9100;SDS011;4586;52.518;13.486;2024-03-02T13:29:26;12.67;;;8.47;;
9100;SDS011;4586;52.518;13.486;2024-03-02T13:33:28;16.03;;;10.10;;
9100;SDS011;4586;52.518;13.486;2024-03-02T13:37:30;12.70;;;8.53;;
9100;SDS011;4586;52.518;13.486;2024-03-02T13:41:33;16.13;;;8.90;;
9100;SDS011;4586;52.518;13.486;2024-03-02T13:45:35;13.43;;;8.53;;
9100;SDS011;4586;52.518;13.486;2024-03-02T13:49:37;14.23;;;9.07;;
9100;SDS011;4586;52.518;13.486;2024-03-02T13:53:39;14.67;;;9.33;;
9100;SDS011;4586;52.518;13.486;2024-03-02T13:57:42;14.67;;;9.83;;
9100;SDS011;4586;52.518;13.486;2024-03-02T14:01:44;14.63;;;9.10;;
9100;SDS011;4586;52.518;13.486;2024-03-02T14:05:47;12.70;;;8.33;;
9100;SDS011;4586;52.518;13.486;2024-03-02T14:09:52;11.93;;;8.40;;
9100;SDS011;4586;52.518;13.486;2024-03-02T14:13:54;12.70;;;9.53;;
9100;SDS011;4586;52.518;13.486;2024-03-02T14:17:56;13.07;;;8.33;;
9100;SDS011;4586;52.518;13.486;2024-03-02T14:21:58;10.57;;;7.00;;
9100;SDS011;4586;52.518;13.486;2024-03-02T14:26:01;9.73;;;7.07;;
9100;SDS011;4586;52.518;13.486;2024-03-02T14:30:03;11.27;;;7.90;;
9100;SDS011;4586;52.518;13.486;2024-03-02T14:34:06;11.53;;;8.13;;
9100;SDS011;4586;52.518;13.486;2024-03-02T14:38:08;10.83;;;7.20;;
9100;SDS011;4586;52.518;13.486;2024-03-02T14:42:11;13.80;;;8.47;;
9100;SDS011;4586;52.518;13.486;2024-03-02T14:46:13;11.87;;;8.43;;
9100;SDS011;4586;52.518;13.486;2024-03-02T14:50:15;12.53;;;8.10;;
9100;SDS011;4586;52.518;13.486;2024-03-02T14:54:18;12.00;;;8.23;;
9100;SDS011;4586;52.518;13.486;2024-03-02T14:58:20;11.23;;;8.00;;
9100;SDS011;4586;52.518;13.486;2024-03-02T15:02:22;10.65;;;7.63;;
9100;SDS011;4586;52.518;13.486;2024-03-02T15:06:24;29.87;;;17.73;;
9100;SDS011;4586;52.518;13.486;2024-03-02T15:10:27;14.03;;;8.67;;
9100;SDS011;4586;52.518;13.486;2024-03-02T15:14:29;12.87;;;7.03;;
9100;SDS011;4586;52.518;13.486;2024-03-02T15:18:32;9.87;;;6.77;;
9100;SDS011;4586;52.518;13.486;2024-03-02T15:22:34;11.17;;;6.43;;
9100;SDS011;4586;52.518;13.486;2024-03-02T15:26:36;10.13;;;5.78;;
9100;SDS011;4586;52.518;13.486;2024-03-02T15:30:38;9.67;;;7.13;;
9100;SDS011;4586;52.518;13.486;2024-03-02T15:34:41;9.80;;;6.20;;
9100;SDS011;4586;52.518;13.486;2024-03-02T15:38:43;10.70;;;6.43;;
9100;SDS011;4586;52.518;13.486;2024-03-02T15:42:46;8.47;;;6.10;;
9100;SDS011;4586;52.518;13.486;2024-03-02T15:46:48;9.33;;;5.70;;
9100;SDS011;4586;52.518;13.486;2024-03-02T15:50:51;8.60;;;5.63;;
9100;SDS011;4586;52.518;13.486;2024-03-02T15:54:53;9.33;;;5.87;;
9100;SDS011;4586;52.518;13.486;2024-03-02T15:58:55;8.33;;;6.10;;
9100;SDS011;4586;52.518;13.486;2024-03-02T16:02:57;8.80;;;6.23;;
9100;SDS011;4586;52.518;13.486;2024-03-02T16:06:59;7.77;;;5.33;;
9100;SDS011;4586;52.518;13.486;2024-03-02T16:11:02;9.80;;;6.50;;
9100;SDS011;4586;52.518;13.486;2024-03-02T16:15:05;9.80;;;6.13;;
9100;SDS011;4586;52.518;13.486;2024-03-02T16:19:07;8.77;;;5.83;;
9100;SDS011;4586;52.518;13.486;2024-03-02T16:23:21;12.33;;;6.17;;
9100;SDS011;4586;52.518;13.486;2024-03-02T16:27:23;10.00;;;6.87;;
9100;SDS011;4586;52.518;13.486;2024-03-02T16:31:26;10.67;;;7.07;;
9100;SDS011;4586;52.518;13.486;2024-03-02T16:35:28;10.40;;;7.47;;
9100;SDS011;4586;52.518;13.486;2024-03-02T16:39:30;10.83;;;6.67;;
9100;SDS011;4586;52.518;13.486;2024-03-02T16:43:35;11.85;;;7.00;;
9100;SDS011;4586;52.518;13.486;2024-03-02T16:47:38;10.67;;;7.27;;
9100;SDS011;4586;52.518;13.486;2024-03-02T16:51:41;10.10;;;6.63;;
9100;SDS011;4586;52.518;13.486;2024-03-02T16:55:43;12.33;;;8.07;;
9100;SDS011;4586;52.518;13.486;2024-03-02T16:59:46;9.83;;;7.43;;
9100;SDS011;4586;52.518;13.486;2024-03-02T17:03:48;11.60;;;9.18;;
9100;SDS011;4586;52.518;13.486;2024-03-02T17:07:50;14.20;;;9.50;;
9100;SDS011;4586;52.518;13.486;2024-03-02T17:11:52;33.70;;;19.50;;
9100;SDS011;4586;52.518;13.486;2024-03-02T17:15:54;16.93;;;10.03;;
9100;SDS011;4586;52.518;13.486;2024-03-02T17:19:57;16.63;;;10.50;;
9100;SDS011;4586;52.518;13.486;2024-03-02T17:23:59;12.65;;;8.10;;
9100;SDS011;4586;52.518;13.486;2024-03-02T17:28:22;12.63;;;8.17;;
9100;SDS011;4586;52.518;13.486;2024-03-02T17:32:23;12.15;;;7.18;;
9100;SDS011;4586;52.518;13.486;2024-03-02T17:36:25;12.23;;;8.30;;
9100;SDS011;4586;52.518;13.486;2024-03-02T17:40:28;12.13;;;7.95;;
9100;SDS011;4586;52.518;13.486;2024-03-02T17:44:30;15.40;;;8.35;;
9100;SDS011;4586;52.518;13.486;2024-03-02T17:48:32;14.47;;;8.57;;
9100;SDS011;4586;52.518;13.486;2024-03-02T17:52:34;12.00;;;8.43;;
9100;SDS011;4586;52.518;13.486;2024-03-02T17:56:37;14.37;;;9.23;;
9100;SDS011;4586;52.518;13.486;2024-03-02T18:00:39;16.43;;;9.70;;
9100;SDS011;4586;52.518;13.486;2024-03-02T18:04:41;15.83;;;9.97;;
9100;SDS011;4586;52.518;13.486;2024-03-02T18:08:43;16.03;;;9.77;;
9100;SDS011;4586;52.518;13.486;2024-03-02T18:12:46;15.03;;;9.83;;
9100;SDS011;4586;52.518;13.486;2024-03-02T18:16:48;14.20;;;10.00;;
9100;SDS011;4586;52.518;13.486;2024-03-02T18:20:50;14.67;;;9.33;;
9100;SDS011;4586;52.518;13.486;2024-03-02T18:24:52;15.40;;;9.97;;
9100;SDS011;4586;52.518;13.486;2024-03-02T18:28:54;15.43;;;9.77;;
9100;SDS011;4586;52.518;13.486;2024-03-02T18:32:57;17.80;;;10.33;;
9100;SDS011;4586;52.518;13.486;2024-03-02T18:36:59;14.53;;;10.10;;
9100;SDS011;4586;52.518;13.486;2024-03-02T18:41:01;15.60;;;11.63;;
9100;SDS011;4586;52.518;13.486;2024-03-02T18:45:03;19.57;;;11.23;;
9100;SDS011;4586;52.518;13.486;2024-03-02T18:49:05;18.07;;;11.20;;
9100;SDS011;4586;52.518;13.486;2024-03-02T18:53:08;18.30;;;11.40;;
9100;SDS011;4586;52.518;13.486;2024-03-02T18:57:14;16.70;;;10.83;;
9100;SDS011;4586;52.518;13.486;2024-03-02T19:01:16;16.67;;;11.32;;
9100;SDS011;4586;52.518;13.486;2024-03-02T19:05:18;14.73;;;10.70;;
9100;SDS011;4586;52.518;13.486;2024-03-02T19:09:20;17.50;;;11.00;;
9100;SDS011;4586;52.518;13.486;2024-03-02T19:13:22;17.77;;;11.37;;
9100;SDS011;4586;52.518;13.486;2024-03-02T19:17:24;19.33;;;11.87;;
9100;SDS011;4586;52.518;13.486;2024-03-02T19:21:27;17.70;;;11.50;;
9100;SDS011;4586;52.518;13.486;2024-03-02T19:25:29;17.30;;;11.47;;
9100;SDS011;4586;52.518;13.486;2024-03-02T19:29:31;19.60;;;12.60;;
9100;SDS011;4586;52.518;13.486;2024-03-02T19:33:33;19.60;;;12.23;;
9100;SDS011;4586;52.518;13.486;2024-03-02T19:37:36;17.87;;;11.53;;
9100;SDS011;4586;52.518;13.486;2024-03-02T19:41:42;18.27;;;12.07;;
9100;SDS011;4586;52.518;13.486;2024-03-02T19:45:44;19.33;;;12.43;;
9100;SDS011;4586;52.518;13.486;2024-03-02T19:49:46;19.80;;;12.33;;
9100;SDS011;4586;52.518;13.486;2024-03-02T19:53:49;23.43;;;12.83;;
9100;SDS011;4586;52.518;13.486;2024-03-02T19:57:53;19.27;;;11.90;;
9100;SDS011;4586;52.518;13.486;2024-03-02T20:01:55;18.07;;;11.43;;
9100;SDS011;4586;52.518;13.486;2024-03-02T20:05:58;18.77;;;11.30;;
9100;SDS011;4586;52.518;13.486;2024-03-02T20:10:00;18.10;;;13.17;;
9100;SDS011;4586;52.518;13.486;2024-03-02T20:14:02;16.20;;;11.43;;
9100;SDS011;4586;52.518;13.486;2024-03-02T20:18:04;20.63;;;14.33;;
9100;SDS011;4586;52.518;13.486;2024-03-02T20:22:07;20.07;;;13.70;;
9100;SDS011;4586;52.518;13.486;2024-03-02T20:26:09;19.73;;;13.50;;
9100;SDS011;4586;52.518;13.486;2024-03-02T20:30:12;20.43;;;13.50;;
9100;SDS011;4586;52.518;13.486;2024-03-02T20:34:14;24.13;;;14.93;;
9100;SDS011;4586;52.518;13.486;2024-03-02T20:38:16;22.60;;;13.73;;
9100;SDS011;4586;52.518;13.486;2024-03-02T20:42:19;22.70;;;14.83;;
9100;SDS011;4586;52.518;13.486;2024-03-02T20:46:21;24.57;;;15.10;;
9100;SDS011;4586;52.518;13.486;2024-03-02T20:50:23;21.63;;;14.60;;
9100;SDS011;4586;52.518;13.486;2024-03-02T20:54:25;23.17;;;15.63;;
9100;SDS011;4586;52.518;13.486;2024-03-02T20:58:27;30.73;;;19.63;;
9100;SDS011;4586;52.518;13.486;2024-03-02T21:02:30;21.70;;;15.00;;
9100;SDS011;4586;52.518;13.486;2024-03-02T21:06:32;23.23;;;15.90;;
9100;SDS011;4586;52.518;13.486;2024-03-02T21:10:34;26.30;;;15.87;;
9100;SDS011;4586;52.518;13.486;2024-03-02T21:14:36;25.23;;;15.83;;
9100;SDS011;4586;52.518;13.486;2024-03-02T21:18:38;26.90;;;16.37;;
9100;SDS011;4586;52.518;13.486;2024-03-02T21:22:41;22.90;;;15.20;;
9100;SDS011;4586;52.518;13.486;2024-03-02T21:26:43;27.50;;;16.23;;
9100;SDS011;4586;52.518;13.486;2024-03-02T21:30:45;25.17;;;16.50;;
9100;SDS011;4586;52.518;13.486;2024-03-02T21:34:47;26.80;;;17.30;;
9100;SDS011;4586;52.518;13.486;2024-03-02T21:38:49;25.80;;;15.97;;
9100;SDS011;4586;52.518;13.486;2024-03-02T21:42:52;23.93;;;17.07;;
9100;SDS011;4586;52.518;13.486;2024-03-02T21:46:54;25.00;;;15.43;;
9100;SDS011;4586;52.518;13.486;2024-03-02T21:50:56;23.73;;;15.97;;
9100;SDS011;4586;52.518;13.486;2024-03-02T21:54:58;24.43;;;16.27;;
9100;SDS011;4586;52.518;13.486;2024-03-02T21:59:01;26.50;;;17.40;;
9100;SDS011;4586;52.518;13.486;2024-03-02T22:03:03;30.73;;;17.33;;
9100;SDS011;4586;52.518;13.486;2024-03-02T22:07:05;23.50;;;15.80;;
9100;SDS011;4586;52.518;13.486;2024-03-02T22:11:07;23.23;;;15.53;;
9100;SDS011;4586;52.518;13.486;2024-03-02T22:15:10;26.40;;;17.00;;
9100;SDS011;4586;52.518;13.486;2024-03-02T22:19:12;24.07;;;15.07;;
9100;SDS011;4586;52.518;13.486;2024-03-02T22:23:14;26.33;;;16.23;;
9100;SDS011;4586;52.518;13.486;2024-03-02T22:27:16;34.53;;;19.17;;
9100;SDS011;4586;52.518;13.486;2024-03-02T22:31:18;27.57;;;17.77;;
9100;SDS011;4586;52.518;13.486;2024-03-02T22:35:21;28.00;;;17.57;;
9100;SDS011;4586;52.518;13.486;2024-03-02T22:39:24;23.87;;;17.00;;
9100;SDS011;4586;52.518;13.486;2024-03-02T22:43:26;24.63;;;17.30;;
9100;SDS011;4586;52.518;13.486;2024-03-02T22:47:28;24.53;;;17.13;;
9100;SDS011;4586;52.518;13.486;2024-03-02T22:51:31;27.23;;;17.93;;
9100;SDS011;4586;52.518;13.486;2024-03-02T22:55:33;27.90;;;17.33;;
9100;SDS011;4586;52.518;13.486;2024-03-02T22:59:35;24.20;;;16.23;;
9100;SDS011;4586;52.518;13.486;2024-03-02T23:03:38;26.80;;;16.93;;
9100;SDS011;4586;52.518;13.486;2024-03-02T23:07:40;25.97;;;16.50;;
9100;SDS011;4586;52.518;13.486;2024-03-02T23:11:42;26.00;;;18.10;;
9100;SDS011;4586;52.518;13.486;2024-03-02T23:15:44;27.03;;;18.33;;
9100;SDS011;4586;52.518;13.486;2024-03-02T23:19:46;28.37;;;18.60;;
9100;SDS011;4586;52.518;13.486;2024-03-02T23:23:49;28.17;;;18.03;;
9100;SDS011;4586;52.518;13.486;2024-03-02T23:27:51;28.97;;;17.53;;
9100;SDS011;4586;52.518;13.486;2024-03-02T23:31:53;29.60;;;18.97;;
9100;SDS011;4586;52.518;13.486;2024-03-02T23:35:55;27.47;;;18.60;;
9100;SDS011;4586;52.518;13.486;2024-03-02T23:39:57;29.27;;;17.70;;
9100;SDS011;4586;52.518;13.486;2024-03-02T23:44:00;28.77;;;18.50;;
9100;SDS011;4586;52.518;13.486;2024-03-02T23:48:02;27.43;;;18.17;;
9100;SDS011;4586;52.518;13.486;2024-03-02T23:52:05;27.60;;;18.30;;
9100;SDS011;4586;52.518;13.486;2024-03-02T23:56:10;28.10;;;18.83;;
